Time;durP1;ratioP1;P1;durP2;ratioP2;P2;SDS_P1;SDS_P2;PMS_P1;PMS_P2;Temp;Humidity;BMP_temperature;BMP_pressure;BME280_temperature;BME280_humidity;BME280_pressure;Samples;Min_cycle;Max_cycle;Signal;HPM_P1;HPM_P2
2022/11/19 00:00:03;;;;;;;;;;;;;;;15.56;76.66;99943.06;5049029;28;1672;-63
2022/11/19 00:02:28;;;;;;;;;;;;;;;15.57;76.37;99935.59;5053823;28;1799;-62
2022/11/19 00:04:53;;;;;;;;;;;;;;;15.56;76.46;99939.47;5055282;28;2118;-63
2022/11/19 00:07:19;;;;;;;;;;;;;;;15.55;76.56;99932.34;5054783;28;1858;-63
2022/11/19 00:09:44;;;;;;;;;;;;;;;15.55;76.30;99941.44;5053957;28;1958;-63
2022/11/19 00:14:53;;;;;;;;;;;;;;;15.56;76.60;99951.34;5056293;28;1154;-63
2022/11/19 00:17:18;;;;;;;;;;;;;;;15.54;76.46;99945.31;5046464;28;1866;-63
2022/11/19 00:19:44;;;;;;;;;;;;;;;15.55;76.50;99948.88;5053945;28;1805;-63
2022/11/19 00:22:09;;;;;;;;;;;;;;;15.54;76.50;99950.03;5053362;28;1919;-63
2022/11/19 00:24:34;;;;;;;;;;;;;;;15.54;76.40;99961.88;5055755;28;1418;-63
2022/11/19 00:27:00;;;;;;;;;;;;;;;15.55;76.46;99962.69;5055624;28;862;-63
2022/11/19 00:29:25;;;;;;;;;;;;;;;15.55;76.17;99970.97;5055522;28;1890;-63
2022/11/19 00:31:50;;;;;;;;;;;;;;;15.54;76.44;99961.06;5050531;28;1887;-63
2022/11/19 00:34:15;;;;;;;;;;;;;;;15.54;76.53;99966.56;5042337;28;1838;-63
2022/11/19 00:36:40;;;;;;;;;;;;;;;15.54;76.12;99969.34;5055298;28;1635;-63
2022/11/19 00:39:05;;;;;;;;;;;;;;;15.54;76.40;99972.09;5055670;28;1249;-63
2022/11/19 00:41:30;;;;;;;;;;;;;;;15.52;76.66;99964.09;5053007;28;1602;-63
2022/11/19 00:43:56;;;;;;;;;;;;;;;15.51;76.43;99974.31;5047586;28;1203;-63
2022/11/19 00:46:25;;;;;;;;;;;;;;;15.51;76.46;99973.50;5055269;28;1051;-63
2022/11/19 00:48:52;;;;;;;;;;;;;;;15.50;76.33;99978.22;5055345;28;1901;-63
2022/11/19 00:51:18;;;;;;;;;;;;;;;15.52;76.47;99981.47;5054744;28;1884;-62
2022/11/19 00:53:43;;;;;;;;;;;;;;;15.51;76.30;99982.59;5049003;28;1822;-63
2022/11/19 00:56:10;;;;;;;;;;;;;;;15.51;76.62;99979.03;5045021;28;1855;-63
2022/11/19 00:58:36;;;;;;;;;;;;;;;15.51;76.44;99979.84;5053355;28;1803;-63
2022/11/19 01:01:01;;;;;;;;;;;;;;;15.50;76.45;99983.72;5052164;28;1994;-63
2022/11/19 01:03:26;;;;;;;;;;;;;;;15.49;76.15;99976.59;5053480;28;1779;-63
2022/11/19 01:05:51;;;;;;;;;;;;;;;15.51;76.18;99979.03;5053617;28;1922;-63
2022/11/19 01:08:17;;;;;;;;;;;;;;;15.50;76.24;99975.47;5045110;28;2033;-63
2022/11/19 01:10:43;;;;;;;;;;;;;;;15.49;76.20;99971.06;5052943;28;1956;-63
2022/11/19 01:15:52;;;;;;;;;;;;;;;15.50;76.25;99974.66;5043044;28;1896;-63
2022/11/19 01:18:17;;;;;;;;;;;;;;;15.49;76.51;99970.25;5051694;28;2030;-63
2022/11/19 01:20:43;;;;;;;;;;;;;;;15.49;76.20;99981.28;5050745;28;1929;-63
2022/11/19 01:23:08;;;;;;;;;;;;;;;15.49;76.62;99987.63;5053987;28;2044;-63
2022/11/19 01:25:33;;;;;;;;;;;;;;;15.49;76.38;99992.34;5053672;28;1904;-63
2022/11/19 01:27:58;;;;;;;;;;;;;;;15.48;76.84;99996.25;5054310;28;1603;-63
2022/11/19 01:30:24;;;;;;;;;;;;;;;15.48;76.28;100007.28;5054552;28;1898;-63
2022/11/19 01:32:49;;;;;;;;;;;;;;;15.47;76.44;100006.47;5045459;28;1658;-63
2022/11/19 01:35:14;;;;;;;;;;;;;;;15.47;76.61;100003.72;5054402;28;1640;-63
2022/11/19 01:37:40;;;;;;;;;;;;;;;15.46;76.60;99999.34;5045005;28;1674;-63
2022/11/19 01:40:05;;;;;;;;;;;;;;;15.46;76.32;99999.34;5045611;28;1580;-63
2022/11/19 01:42:49;;;;;;;;;;;;;;;15.46;76.71;99996.56;5054358;28;1577;-63
2022/11/19 01:45:17;;;;;;;;;;;;;;;15.46;76.70;99987.47;5054559;28;907;-63
2022/11/19 01:47:43;;;;;;;;;;;;;;;15.46;76.59;99995.75;5049457;28;1843;-63
2022/11/19 01:50:08;;;;;;;;;;;;;;;15.45;76.46;99997.72;5048363;28;1949;-63
2022/11/19 01:52:33;;;;;;;;;;;;;;;15.44;77.02;99996.09;5054086;28;1004;-63
2022/11/19 01:54:58;;;;;;;;;;;;;;;15.44;76.94;99995.25;5053726;28;1977;-63
2022/11/19 01:57:23;;;;;;;;;;;;;;;15.43;76.45;99999.97;5045230;28;2091;-63
2022/11/19 01:59:50;;;;;;;;;;;;;;;15.43;76.94;100002.72;5052043;28;1811;-63
2022/11/19 02:02:16;;;;;;;;;;;;;;;15.44;76.86;100009.88;5053000;28;1674;-63
2022/11/19 02:04:42;;;;;;;;;;;;;;;15.44;77.04;100009.88;5053939;28;1241;-63
2022/11/19 02:07:08;;;;;;;;;;;;;;;15.44;76.61;100006.28;5051071;28;2048;-63
2022/11/19 02:09:33;;;;;;;;;;;;;;;15.43;76.77;100018.47;5053038;28;1985;-63
2022/11/19 02:12:17;;;;;;;;;;;;;;;15.43;77.24;100024.78;5052832;28;1791;-63
2022/11/19 02:14:42;;;;;;;;;;;;;;;15.43;76.83;100029.50;5051684;28;2074;-63
2022/11/19 02:17:23;;;;;;;;;;;;;;;15.42;77.03;100031.44;5050738;28;1660;-63
2022/11/19 02:20:09;;;;;;;;;;;;;;;15.43;76.33;100041.34;5050155;28;1867;-63
2022/11/19 02:22:45;;;;;;;;;;;;;;;15.42;77.13;100042.47;5052472;28;1732;-63
2022/11/19 02:25:18;;;;;;;;;;;;;;;15.42;76.75;100047.16;5044469;28;1640;-63
2022/11/19 02:27:59;;;;;;;;;;;;;;;15.42;76.98;100052.69;5050396;28;1799;-63
2022/11/19 02:30:24;;;;;;;;;;;;;;;15.40;77.01;100047.50;5048935;28;1890;-63
2022/11/19 02:32:52;;;;;;;;;;;;;;;15.41;76.68;100056.56;5047064;28;1808;-63
2022/11/19 02:35:20;;;;;;;;;;;;;;;15.40;77.00;100044.72;5049909;28;1915;-63
2022/11/19 02:37:48;;;;;;;;;;;;;;;15.39;76.87;100045.91;5050965;28;1928;-63
2022/11/19 02:40:23;;;;;;;;;;;;;;;15.40;76.57;100039.22;5050182;28;1668;-63
2022/11/19 02:43:07;;;;;;;;;;;;;;;15.40;76.46;100038.41;5038919;28;1696;-63
2022/11/19 02:45:35;;;;;;;;;;;;;;;15.41;77.07;100045.53;5050042;28;1766;-63
2022/11/19 02:48:07;;;;;;;;;;;;;;;15.40;76.91;100055.75;5047446;28;2008;-63
2022/11/19 02:50:35;;;;;;;;;;;;;;;15.38;77.11;100046.22;5052002;28;1890;-63
2022/11/19 02:53:02;;;;;;;;;;;;;;;15.38;76.81;100046.22;5045118;28;1880;-63
2022/11/19 02:55:27;;;;;;;;;;;;;;;15.38;76.73;100052.53;5044401;28;1590;-63
2022/11/19 02:57:58;;;;;;;;;;;;;;;15.38;76.51;100047.03;5049641;28;2000;-63
2022/11/19 03:06:01;;;;;;;;;;;;;;;15.36;77.11;100052.03;5051339;28;1914;-63
2022/11/19 03:08:27;;;;;;;;;;;;;;;15.37;76.68;100055.63;5049275;28;2050;-63
2022/11/19 03:11:03;;;;;;;;;;;;;;;15.37;77.00;100061.13;5051980;28;1902;-63
2022/11/19 03:16:41;;;;;;;;;;;;;;;15.36;76.72;100057.56;5047383;28;1881;-63
2022/11/19 03:19:18;;;;;;;;;;;;;;;15.35;77.04;100060.63;5046098;28;1827;-63
2022/11/19 03:21:50;;;;;;;;;;;;;;;15.35;76.61;100063.41;5043380;28;1721;-63
2022/11/19 03:24:26;;;;;;;;;;;;;;;15.34;77.16;100061.78;5041823;28;1950;-63
2022/11/19 03:26:55;;;;;;;;;;;;;;;15.34;76.76;100068.09;5050145;28;1910;-63
2022/11/19 03:29:22;;;;;;;;;;;;;;;15.35;76.37;100068.91;5051303;28;1905;-63
2022/11/19 03:31:50;;;;;;;;;;;;;;;15.33;76.71;100069.22;5041490;28;1661;-63
2022/11/19 03:34:17;;;;;;;;;;;;;;;15.33;76.66;100072.00;5038374;28;1752;-63
2022/11/19 03:36:44;;;;;;;;;;;;;;;15.33;76.87;100077.50;5043007;28;1691;-63
2022/11/19 03:39:15;;;;;;;;;;;;;;;15.34;76.73;100076.38;5052757;28;1668;-63
2022/11/19 03:41:41;;;;;;;;;;;;;;;15.33;76.58;100073.94;5052713;28;991;-63
2022/11/19 03:44:09;;;;;;;;;;;;;;;15.32;76.66;100067.59;5052862;28;900;-63
2022/11/19 03:46:34;;;;;;;;;;;;;;;15.31;76.93;100074.25;5042950;28;1677;-63
2022/11/19 03:49:01;;;;;;;;;;;;;;;15.32;77.23;100084.16;5052495;28;1902;-63
2022/11/19 03:51:37;;;;;;;;;;;;;;;15.31;76.53;100085.28;5052768;28;856;-63
2022/11/19 03:54:02;;;;;;;;;;;;;;;15.31;76.69;100085.28;5052737;28;806;-63
2022/11/19 03:56:28;;;;;;;;;;;;;;;15.31;76.92;100082.53;5042878;28;1906;-63
2022/11/19 03:58:53;;;;;;;;;;;;;;;15.30;76.75;100080.91;5047993;28;1829;-63
2022/11/19 04:01:18;;;;;;;;;;;;;;;15.30;76.96;100083.69;5042126;28;1787;-63
2022/11/19 04:04:34;;;;;;;;;;;;;;;15.30;76.63;100097.47;5049866;28;1893;-63
2022/11/19 04:06:29;;;;;;;;;;;;;;;15.29;77.15;100090.31;5042774;28;1956;-63
2022/11/19 04:08:54;;;;;;;;;;;;;;;15.30;76.42;100091.13;5051138;28;1898;-63
2022/11/19 04:11:19;;;;;;;;;;;;;;;15.28;76.62;100088.69;5050953;28;1764;-63
2022/11/19 04:13:44;;;;;;;;;;;;;;;15.29;76.54;100098.59;5046415;28;1906;-63
2022/11/19 04:16:09;;;;;;;;;;;;;;;15.27;76.66;100095.34;5053549;28;1836;-63
2022/11/19 04:18:35;;;;;;;;;;;;;;;15.27;77.00;100084.31;5052826;28;1921;-63
2022/11/19 04:21:00;;;;;;;;;;;;;;;15.26;76.56;100079.94;5049518;28;2076;-63
2022/11/19 04:23:25;;;;;;;;;;;;;;;15.26;76.90;100090.16;5047023;28;1940;-63
2022/11/19 04:25:50;;;;;;;;;;;;;;;15.27;76.91;100097.28;5045570;28;1791;-63
2022/11/19 04:28:15;;;;;;;;;;;;;;;15.24;76.54;100098.72;5055608;28;1632;-63
2022/11/19 04:30:41;;;;;;;;;;;;;;;15.25;76.85;100096.78;5054388;28;1903;-63
2022/11/19 04:33:06;;;;;;;;;;;;;;;15.24;76.59;100112.50;5050209;28;1529;-63
2022/11/19 04:35:32;;;;;;;;;;;;;;;15.24;76.91;100112.50;5035742;28;2101;-63
2022/11/19 04:37:57;;;;;;;;;;;;;;;15.23;76.46;100108.13;5055261;28;1440;-63
2022/11/19 04:40:22;;;;;;;;;;;;;;;15.23;77.15;100115.59;5055713;28;1865;-63
2022/11/19 04:42:47;;;;;;;;;;;;;;;15.22;77.22;100109.28;5055475;28;980;-63
2022/11/19 04:45:12;;;;;;;;;;;;;;;15.22;76.58;100114.00;5055610;28;864;-63
2022/11/19 04:47:38;;;;;;;;;;;;;;;15.21;77.16;100124.22;5045892;28;2108;-63
2022/11/19 04:50:03;;;;;;;;;;;;;;;15.21;77.05;100123.41;5055472;28;1890;-63
2022/11/19 04:52:30;;;;;;;;;;;;;;;15.20;76.82;100116.25;5055514;28;956;-63
2022/11/19 04:54:55;;;;;;;;;;;;;;;15.19;76.38;100120.13;5055379;28;958;-63
2022/11/19 04:57:20;;;;;;;;;;;;;;;15.18;76.49;100124.84;5054174;28;1972;-63
2022/11/19 04:59:45;;;;;;;;;;;;;;;15.19;76.74;100120.94;5052734;28;1734;-63
2022/11/19 05:02:11;;;;;;;;;;;;;;;15.17;76.82;100123.22;5054180;28;1768;-63
2022/11/19 05:04:36;;;;;;;;;;;;;;;15.17;76.55;100122.41;5045915;28;1787;-64
2022/11/19 05:07:01;;;;;;;;;;;;;;;15.18;76.41;100121.25;5051744;28;1863;-63
2022/11/19 05:09:26;;;;;;;;;;;;;;;15.17;76.71;100122.41;5053859;28;1995;-63
2022/11/19 05:11:51;;;;;;;;;;;;;;;15.16;76.42;100127.09;5052523;28;2304;-63
2022/11/19 05:14:16;;;;;;;;;;;;;;;15.16;76.43;100132.59;5050743;28;1817;-63
2022/11/19 05:16:41;;;;;;;;;;;;;;;15.15;76.37;100142.81;5052456;28;1849;-62
2022/11/19 05:19:06;;;;;;;;;;;;;;;15.14;76.94;100130.16;5052795;28;1918;-63
2022/11/19 05:21:32;;;;;;;;;;;;;;;15.16;76.56;100135.38;5050562;28;1836;-63
2022/11/19 05:23:57;;;;;;;;;;;;;;;15.15;76.56;100130.97;5049432;28;1796;-63
2022/11/19 05:26:22;;;;;;;;;;;;;;;15.15;76.91;100130.97;5049390;28;1876;-63
2022/11/19 05:28:47;;;;;;;;;;;;;;;15.13;77.06;100134.09;5053870;28;1963;-63
2022/11/19 05:31:12;;;;;;;;;;;;;;;15.13;76.41;100134.09;5053447;28;1889;-63
2022/11/19 05:33:37;;;;;;;;;;;;;;;15.12;76.75;100137.97;5045202;28;1870;-63
2022/11/19 05:36:03;;;;;;;;;;;;;;;15.13;76.57;100149.81;5050598;28;1930;-63
2022/11/19 05:38:28;;;;;;;;;;;;;;;15.13;76.66;100147.88;5053571;28;1812;-63
2022/11/19 05:40:53;;;;;;;;;;;;;;;15.13;76.46;100147.06;5053573;28;1716;-63
2022/11/19 05:43:19;;;;;;;;;;;;;;;15.12;76.35;100150.94;5052558;28;1852;-63
2022/11/19 05:45:44;;;;;;;;;;;;;;;15.11;76.22;100149.31;5052180;28;1627;-63
2022/11/19 05:48:09;;;;;;;;;;;;;;;15.12;76.26;100150.94;5052064;28;1903;-63
2022/11/19 05:50:34;;;;;;;;;;;;;;;15.10;76.58;100151.25;5053479;28;1910;-63
2022/11/19 05:52:59;;;;;;;;;;;;;;;15.10;76.25;100145.72;5053521;28;1654;-63
2022/11/19 05:55:24;;;;;;;;;;;;;;;15.11;76.36;100154.81;5045073;28;1886;-63
2022/11/19 05:57:50;;;;;;;;;;;;;;;15.11;76.31;100160.34;5052033;28;2055;-63
2022/11/19 06:00:16;;;;;;;;;;;;;;;15.10;76.74;100162.28;5053346;28;1847;-63
2022/11/19 06:02:41;;;;;;;;;;;;;;;15.08;76.12;100164.53;5053033;28;1807;-63
2022/11/19 06:05:06;;;;;;;;;;;;;;;15.09;76.50;100171.69;5046416;28;2019;-63
2022/11/19 06:07:31;;;;;;;;;;;;;;;15.08;76.36;100171.97;5050987;28;1894;-63
2022/11/19 06:09:57;;;;;;;;;;;;;;;15.09;76.63;100165.34;5053060;28;1886;-63
2022/11/19 06:12:22;;;;;;;;;;;;;;;15.08;76.83;100164.53;5051837;28;1893;-63
2022/11/19 06:14:47;;;;;;;;;;;;;;;15.08;76.79;100169.22;5052834;28;2020;-63
2022/11/19 06:17:12;;;;;;;;;;;;;;;15.08;76.13;100170.03;5052051;28;1902;-63
2022/11/19 06:19:37;;;;;;;;;;;;;;;15.05;77.11;100170.69;5050343;28;1813;-63
2022/11/19 06:22:04;;;;;;;;;;;;;;;15.07;76.56;100168.41;5048724;28;1868;-63
2022/11/19 06:24:29;;;;;;;;;;;;;;;15.06;76.53;100168.72;5052782;28;1796;-63
2022/11/19 06:26:54;;;;;;;;;;;;;;;15.04;76.49;100173.78;5050931;28;1849;-63
2022/11/19 06:29:19;;;;;;;;;;;;;;;15.03;76.55;100169.38;5051884;28;1898;-63
2022/11/19 06:31:44;;;;;;;;;;;;;;;15.02;76.51;100178.78;5045085;28;1443;-63
2022/11/19 06:34:10;;;;;;;;;;;;;;;15.02;76.83;100181.53;5053568;28;1004;-63
2022/11/19 06:36:35;;;;;;;;;;;;;;;15.01;76.89;100180.72;5052464;28;2066;-63
2022/11/19 06:39:00;;;;;;;;;;;;;;;15.02;76.97;100179.59;5053438;28;1537;-63
2022/11/19 06:41:25;;;;;;;;;;;;;;;15.01;76.75;100182.66;5053315;28;1003;-63
2022/11/19 06:43:50;;;;;;;;;;;;;;;14.99;76.40;100185.72;5053339;28;749;-63
2022/11/19 06:46:15;;;;;;;;;;;;;;;15.00;76.22;100190.13;5052261;28;1918;-63
2022/11/19 06:48:41;;;;;;;;;;;;;;;14.99;76.49;100188.50;5044985;28;1619;-63
2022/11/19 06:51:06;;;;;;;;;;;;;;;14.98;76.03;100188.78;5053277;28;1897;-63
2022/11/19 06:53:32;;;;;;;;;;;;;;;14.97;76.69;100201.75;5053317;28;849;-63
2022/11/19 06:55:57;;;;;;;;;;;;;;;14.97;76.62;100192.72;5051553;28;1784;-63
2022/11/19 06:58:23;;;;;;;;;;;;;;;14.60;75.98;100133.34;5049006;28;1974;-63
2022/11/19 07:00:48;;;;;;;;;;;;;;;14.95;76.89;100194.97;5052163;28;1866;-63
2022/11/19 07:03:14;;;;;;;;;;;;;;;14.94;76.69;100202.41;5052187;28;1740;-63
2022/11/19 07:05:39;;;;;;;;;;;;;;;14.92;76.21;100203.84;5049373;28;2035;-63
2022/11/19 07:08:04;;;;;;;;;;;;;;;14.93;76.74;100200.78;5050680;28;1785;-63
2022/11/19 07:10:30;;;;;;;;;;;;;;;14.92;76.29;100214.88;5052048;28;2030;-63
2022/11/19 07:12:55;;;;;;;;;;;;;;;14.91;76.48;100213.25;5052042;28;1960;-63
2022/11/19 07:15:20;;;;;;;;;;;;;;;14.90;76.09;100225.41;5050922;28;1797;-63
2022/11/19 07:17:46;;;;;;;;;;;;;;;14.92;76.79;100223.16;5049928;28;1976;-62
2022/11/19 07:20:11;;;;;;;;;;;;;;;14.90;76.75;100223.47;5051231;28;1902;-63
2022/11/19 07:22:37;;;;;;;;;;;;;;;14.90;76.39;100223.47;5043990;28;2093;-63
2022/11/19 07:25:02;;;;;;;;;;;;;;;14.91;76.25;100232.53;5052004;28;1802;-63
2022/11/19 07:27:27;;;;;;;;;;;;;;;14.91;75.89;100243.56;5050541;28;1908;-63
2022/11/19 07:29:52;;;;;;;;;;;;;;;14.90;76.65;100250.19;5052641;28;1898;-63
2022/11/19 07:32:17;;;;;;;;;;;;;;;14.87;76.01;100239.81;5052707;28;1044;-63
2022/11/19 07:34:42;;;;;;;;;;;;;;;14.86;76.26;100250.03;5052992;28;1630;-63
2022/11/19 07:37:07;;;;;;;;;;;;;;;14.88;76.65;100252.47;5043504;28;1973;-63
2022/11/19 07:39:33;;;;;;;;;;;;;;;14.89;76.77;100243.06;5051042;28;1636;-63
2022/11/19 07:44:42;;;;;;;;;;;;;;;14.90;76.27;100261.22;5054818;28;1907;-64
2022/11/19 07:47:08;;;;;;;;;;;;;;;14.87;76.56;100261.88;5054607;28;1944;-63
2022/11/19 07:49:33;;;;;;;;;;;;;;;14.86;76.87;100261.06;5053377;28;1975;-63
2022/11/19 07:51:58;;;;;;;;;;;;;;;14.88;76.76;100263.50;5059632;28;1720;-63
2022/11/19 07:54:23;;;;;;;;;;;;;;;14.88;76.10;100264.31;5056435;28;1532;-63
2022/11/19 07:56:49;;;;;;;;;;;;;;;14.90;76.22;100269.50;5052084;28;1962;-63
2022/11/19 07:59:14;;;;;;;;;;;;;;;14.95;76.24;100272.13;5052138;28;2005;-63
2022/11/19 08:01:40;;;;;;;;;;;;;;;14.97;76.59;100272.63;5055036;28;1818;-63
2022/11/19 08:04:05;;;;;;;;;;;;;;;14.96;75.90;100277.34;5051002;28;2624;-63
2022/11/19 08:06:33;;;;;;;;;;;;;;;14.98;76.77;100279.75;5053805;28;1687;-63
2022/11/19 08:08:58;;;;;;;;;;;;;;;15.01;76.85;100276.38;5055525;28;1906;-63
2022/11/19 08:11:23;;;;;;;;;;;;;;;15.02;77.27;100286.28;5054055;28;1871;-63
2022/11/19 08:13:49;;;;;;;;;;;;;;;15.04;76.99;100284.03;5054545;28;1620;-63
2022/11/19 08:19:03;;;;;;;;;;;;;;;15.08;76.39;100283.06;5053537;28;1434;-63
2022/11/19 08:21:28;;;;;;;;;;;;;;;15.11;76.30;100287.97;5054304;28;1936;-63
2022/11/19 08:23:53;;;;;;;;;;;;;;;15.14;76.93;100289.28;5054438;28;2046;-63
2022/11/19 08:26:19;;;;;;;;;;;;;;;15.16;76.48;100289.75;5054884;28;1597;-61
2022/11/19 08:28:44;;;;;;;;;;;;;;;15.19;77.00;100291.88;5054050;28;1833;-63
2022/11/19 08:31:09;;;;;;;;;;;;;;;15.21;76.54;100288.81;5054273;28;1953;-63
2022/11/19 08:33:35;;;;;;;;;;;;;;;15.23;76.20;100281.03;5055277;28;1568;-63
2022/11/19 08:36:00;;;;;;;;;;;;;;;15.25;76.85;100285.09;5052584;28;1836;-63
2022/11/19 08:38:25;;;;;;;;;;;;;;;15.28;76.43;100287.22;5054362;28;2090;-63
2022/11/19 08:40:51;;;;;;;;;;;;;;;15.30;76.63;100282.22;5055614;28;851;-63
2022/11/19 08:43:16;;;;;;;;;;;;;;;15.32;76.65;100288.22;5053713;28;2182;-63
2022/11/19 08:45:48;;;;;;;;;;;;;;;15.34;76.38;100285.97;5044961;28;1347;-62
2022/11/19 08:48:14;;;;;;;;;;;;;;;15.37;76.18;100276.25;5051699;28;1786;-62
2022/11/19 08:50:40;;;;;;;;;;;;;;;15.38;76.61;100284.22;5054285;28;1898;-62
2022/11/19 08:53:05;;;;;;;;;;;;;;;15.40;76.63;100275.59;5053751;28;1711;-63
2022/11/19 08:55:31;;;;;;;;;;;;;;;15.41;76.63;100277.22;5053942;28;1810;-63
2022/11/19 08:58:00;;;;;;;;;;;;;;;15.42;76.89;100276.09;5046271;28;1909;-62
2022/11/19 09:00:25;;;;;;;;;;;;;;;15.43;76.58;100274.97;5046150;28;1799;-63
2022/11/19 09:02:51;;;;;;;;;;;;;;;15.43;76.44;100281.28;5054464;28;1866;-62
2022/11/19 09:05:16;;;;;;;;;;;;;;;15.45;76.87;100284.56;5048150;28;2131;-62
2022/11/19 09:07:41;;;;;;;;;;;;;;;15.44;76.33;100280.16;5051652;28;1725;-63
2022/11/19 09:10:06;;;;;;;;;;;;;;;15.47;76.37;100287.81;5047667;28;1970;-63
2022/11/19 09:12:32;;;;;;;;;;;;;;;15.49;76.42;100290.22;5050333;28;1936;-63
2022/11/19 09:14:57;;;;;;;;;;;;;;;15.49;76.79;100285.53;5051593;28;2086;-62
2022/11/19 09:17:23;;;;;;;;;;;;;;;15.49;76.68;100293.81;5053944;28;1781;-63
2022/11/19 09:19:48;;;;;;;;;;;;;;;15.50;76.71;100291.88;5046454;28;1658;-62
2022/11/19 09:22:13;;;;;;;;;;;;;;;15.49;76.81;100293.00;5054231;28;1965;-63
2022/11/19 09:24:38;;;;;;;;;;;;;;;15.49;77.14;100296.56;5051494;28;1868;-62
2022/11/19 09:27:04;;;;;;;;;;;;;;;15.50;77.01;100292.69;5047453;28;2112;-63
2022/11/19 09:29:29;;;;;;;;;;;;;;;15.50;76.78;100292.69;5053469;28;1999;-63
2022/11/19 09:31:54;;;;;;;;;;;;;;;15.50;76.72;100291.88;5051324;28;1929;-63
2022/11/19 09:34:19;;;;;;;;;;;;;;;15.50;76.73;100297.38;5054266;28;1528;-63
2022/11/19 09:36:44;;;;;;;;;;;;;;;15.50;76.73;100292.69;5048846;28;1895;-63
2022/11/19 09:39:10;;;;;;;;;;;;;;;15.51;76.87;100287.97;5044419;28;1798;-63
2022/11/19 09:41:48;;;;;;;;;;;;;;;15.51;77.01;100283.28;5046364;28;2111;-63
2022/11/19 09:44:32;;;;;;;;;;;;;;;15.52;76.99;100289.59;5049559;28;2014;-63
2022/11/19 09:47:16;;;;;;;;;;;;;;;15.51;77.29;100287.97;5052473;28;1937;-63
2022/11/19 09:49:41;;;;;;;;;;;;;;;15.52;77.08;100290.44;5049454;28;1892;-63
2022/11/19 09:52:11;;;;;;;;;;;;;;;15.52;77.16;100284.91;5051974;28;2214;-63
2022/11/19 09:54:42;;;;;;;;;;;;;;;15.52;77.17;100278.56;5047754;28;1807;-63
2022/11/19 09:57:12;;;;;;;;;;;;;;;15.53;77.15;100277.44;5052906;28;1854;-63
2022/11/19 09:59:38;;;;;;;;;;;;;;;15.56;77.26;100276.03;5049811;28;1965;-63
2022/11/19 10:02:17;;;;;;;;;;;;;;;15.57;76.93;100285.94;5051671;28;2217;-63
2022/11/19 10:04:43;;;;;;;;;;;;;;;15.56;77.03;100279.63;5053089;28;1724;-63
2022/11/19 10:07:20;;;;;;;;;;;;;;;15.57;77.20;100281.22;5053772;28;1372;-63
2022/11/19 10:09:58;;;;;;;;;;;;;;;15.59;77.01;100289.16;5043606;28;1957;-63
2022/11/19 10:12:23;;;;;;;;;;;;;;;15.59;76.36;100291.94;5047839;28;1885;-63
2022/11/19 10:15:07;;;;;;;;;;;;;;;15.60;76.89;100288.84;5049846;28;1927;-64
2022/11/19 10:17:48;;;;;;;;;;;;;;;15.61;76.97;100292.44;5046990;28;1960;-63
2022/11/19 10:20:19;;;;;;;;;;;;;;;15.61;76.93;100286.91;5050990;28;1607;-63
2022/11/19 10:22:56;;;;;;;;;;;;;;;15.62;77.07;100283.03;5045202;28;1324;-62
2022/11/19 10:25:22;;;;;;;;;;;;;;;15.62;77.07;100286.59;5041146;28;1808;-63
2022/11/19 10:27:50;;;;;;;;;;;;;;;15.65;76.94;100285.16;5044999;28;1867;-63
2022/11/19 10:30:18;;;;;;;;;;;;;;;15.65;76.67;100283.19;5052443;28;2138;-63
2022/11/19 10:32:49;;;;;;;;;;;;;;;15.67;76.59;100280.13;5053597;28;1553;-63
2022/11/19 10:35:16;;;;;;;;;;;;;;;15.67;76.55;100277.34;5052617;28;1937;-63
2022/11/19 10:37:47;;;;;;;;;;;;;;;15.67;76.70;100269.88;5052959;28;1532;-63
2022/11/19 10:40:20;;;;;;;;;;;;;;;15.68;76.64;100271.53;5049232;28;1810;-63
2022/11/19 10:42:48;;;;;;;;;;;;;;;15.69;76.60;100269.56;5052967;28;1924;-63
2022/11/19 10:45:15;;;;;;;;;;;;;;;15.71;76.74;100270.06;5041444;28;1956;-63
2022/11/19 10:47:48;;;;;;;;;;;;;;;15.71;76.60;100273.66;5046169;28;2103;-61
2022/11/19 10:50:23;;;;;;;;;;;;;;;15.71;76.69;100265.38;5051712;28;1949;-63
2022/11/19 10:53:06;;;;;;;;;;;;;;;15.73;76.68;100267.81;5049575;28;1593;-63
2022/11/19 10:55:34;;;;;;;;;;;;;;;15.73;76.81;100273.34;5033217;28;995;-62
2022/11/19 10:58:02;;;;;;;;;;;;;;;15.73;76.72;100267.81;5051501;28;1790;-64
2022/11/19 11:00:28;;;;;;;;;;;;;;;15.74;76.52;100258.38;5052624;28;1915;-63
2022/11/19 11:02:57;;;;;;;;;;;;;;;15.74;76.81;100259.19;5052944;28;1570;-63
2022/11/19 11:05:22;;;;;;;;;;;;;;;15.74;76.98;100250.91;5053122;28;916;-63
2022/11/19 11:07:49;;;;;;;;;;;;;;;15.74;76.63;100244.56;5052643;28;1235;-63
2022/11/19 11:10:23;;;;;;;;;;;;;;;15.74;77.01;100241.81;5043681;28;2296;-63
2022/11/19 11:15:32;;;;;;;;;;;;;;;15.74;76.67;100239.88;5051218;28;1410;-62
2022/11/19 11:18:05;;;;;;;;;;;;;;;15.76;76.85;100228.53;5054459;28;2033;-62
2022/11/19 11:20:31;;;;;;;;;;;;;;;15.75;76.55;100235.97;5055660;28;1867;-63
2022/11/19 11:23:08;;;;;;;;;;;;;;;15.75;77.04;100227.72;5054100;28;1783;-63
2022/11/19 11:25:33;;;;;;;;;;;;;;;15.77;76.67;100235.66;5048424;28;1894;-63
2022/11/19 11:28:03;;;;;;;;;;;;;;;15.76;76.84;100232.09;5049092;28;1874;-63
2022/11/19 11:30:29;;;;;;;;;;;;;;;15.77;76.85;100228.22;5057447;28;2086;-63
2022/11/19 11:32:54;;;;;;;;;;;;;;;15.78;76.68;100226.25;5058460;28;1870;-63
2022/11/19 11:35:36;;;;;;;;;;;;;;;15.78;76.84;100226.25;5057295;28;1844;-63
2022/11/19 11:38:02;;;;;;;;;;;;;;;15.80;76.66;100226.75;5045781;28;1856;-63
2022/11/19 11:40:28;;;;;;;;;;;;;;;15.79;76.70;100214.91;5052145;28;1931;-63
2022/11/19 11:42:53;;;;;;;;;;;;;;;15.80;76.69;100219.28;5056376;28;1930;-63
2022/11/19 11:45:21;;;;;;;;;;;;;;;15.80;76.92;100215.72;5057335;28;2182;-63
2022/11/19 11:47:46;;;;;;;;;;;;;;;15.81;76.56;100209.88;5049667;28;1730;-63
2022/11/19 11:50:18;;;;;;;;;;;;;;;15.83;76.74;100207.59;5058246;28;1889;-63
2022/11/19 11:52:45;;;;;;;;;;;;;;;15.84;77.17;100227.72;5051128;28;2027;-63
2022/11/19 11:55:22;;;;;;;;;;;;;;;15.84;76.89;100208.41;5054983;28;1974;-62
2022/11/19 11:57:55;;;;;;;;;;;;;;;15.85;76.60;100210.84;5055706;28;2190;-63
2022/11/19 12:00:32;;;;;;;;;;;;;;;15.85;76.67;100213.59;5050550;28;1883;-63
2022/11/19 12:02:58;;;;;;;;;;;;;;;15.85;76.66;100208.09;5057597;28;2006;-63
2022/11/19 12:05:23;;;;;;;;;;;;;;;15.86;76.49;100203.38;5059107;28;1528;-63
2022/11/19 12:08:02;;;;;;;;;;;;;;;15.88;76.83;100214.91;5057740;28;2002;-63
2022/11/19 12:10:53;;;;;;;;;;;;;;;15.88;76.63;100210.22;5058017;28;1898;-63
2022/11/19 12:13:40;;;;;;;;;;;;;;;15.88;76.56;100210.22;5054355;28;1597;-63
2022/11/19 12:16:10;;;;;;;;;;;;;;;15.89;76.98;100211.03;5053362;28;1888;-63
2022/11/19 12:18:40;;;;;;;;;;;;;;;15.88;76.74;100204.69;5058874;28;1662;-63
2022/11/19 12:21:09;;;;;;;;;;;;;;;15.91;76.45;100205.97;5056936;28;1932;-63
2022/11/19 12:23:46;;;;;;;;;;;;;;;15.91;76.29;100205.19;5050681;28;1598;-63
2022/11/19 12:26:26;;;;;;;;;;;;;;;15.91;76.59;100197.69;5049685;28;1849;-62
2022/11/19 12:29:06;;;;;;;;;;;;;;;15.91;76.39;100199.66;5052557;28;1860;-63
2022/11/19 12:31:39;;;;;;;;;;;;;;;15.92;76.77;100195.75;5054482;28;1693;-62
2022/11/19 12:34:04;;;;;;;;;;;;;;;15.92;76.47;100199.31;5049429;28;1538;-63
2022/11/19 12:36:39;;;;;;;;;;;;;;;15.92;76.46;100202.09;5053369;28;2012;-62
2022/11/19 12:39:30;;;;;;;;;;;;;;;15.94;76.72;100212.81;5051596;28;1919;-63
2022/11/19 12:42:07;;;;;;;;;;;;;;;15.93;76.62;100212.00;5042775;28;1876;-62
2022/11/19 12:44:33;;;;;;;;;;;;;;;15.94;76.50;100218.31;5053842;28;2386;-62
2022/11/19 12:47:06;;;;;;;;;;;;;;;15.94;76.45;100213.63;5053538;28;1944;-62
2022/11/19 12:49:34;;;;;;;;;;;;;;;15.93;76.78;100212.00;5045499;28;1906;-62
2022/11/19 12:52:05;;;;;;;;;;;;;;;15.95;76.64;100212.50;5055292;28;1668;-62
2022/11/19 12:54:33;;;;;;;;;;;;;;;15.95;76.43;100208.91;5045996;28;1858;-63
2022/11/19 12:57:14;;;;;;;;;;;;;;;15.95;76.37;100215.25;5055189;28;820;-63
2022/11/19 12:59:42;;;;;;;;;;;;;;;15.96;76.43;100216.88;5052216;28;1845;-62
2022/11/19 13:02:22;;;;;;;;;;;;;;;15.97;76.43;100210.22;5051087;28;2140;-63
2022/11/19 13:04:51;;;;;;;;;;;;;;;15.98;76.47;100213.78;5050736;28;1775;-63
2022/11/19 13:07:23;;;;;;;;;;;;;;;15.98;76.31;100208.28;5047760;28;1962;-63
2022/11/19 13:10:01;;;;;;;;;;;;;;;15.99;76.45;100202.41;5054842;28;1894;-63
2022/11/19 13:12:38;;;;;;;;;;;;;;;15.99;76.29;100199.66;5045571;28;1924;-63